sensor_id;sensor_type;location;lat;lon;timestamp;pressure;altitude;pressure_sealevel;temperature;humidity
47530;BME280;33272;51.922;7.730;2022-09-30T00:01:09;99963.31;;;5.09;100.00
47530;BME280;33272;51.922;7.730;2022-09-30T00:03:39;99962.28;;;5.07;100.00
47530;BME280;33272;51.922;7.730;2022-09-30T00:06:08;99967.34;;;5.07;100.00
47530;BME280;33272;51.922;7.730;2022-09-30T00:08:37;99971.56;;;5.06;100.00
47530;BME280;33272;51.922;7.730;2022-09-30T00:11:06;99966.38;;;5.05;100.00
47530;BME280;33272;51.922;7.730;2022-09-30T00:13:37;99976.38;;;5.03;100.00
47530;BME280;33272;51.922;7.730;2022-09-30T00:16:08;99978.03;;;5.03;100.00
47530;BME280;33272;51.922;7.730;2022-09-30T00:18:36;99985.78;;;5.04;100.00
47530;BME280;33272;51.922;7.730;2022-09-30T00:21:04;99983.34;;;5.06;100.00
47530;BME280;33272;51.922;7.730;2022-09-30T00:23:31;99993.59;;;5.07;100.00
47530;BME280;33272;51.922;7.730;2022-09-30T00:26:01;99988.69;;;5.09;100.00
47530;BME280;33272;51.922;7.730;2022-09-30T00:28:29;99986.41;;;5.12;100.00
47530;BME280;33272;51.922;7.730;2022-09-30T00:30:58;99988.16;;;5.13;100.00
47530;BME280;33272;51.922;7.730;2022-09-30T00:33:27;99993.50;;;5.16;100.00
47530;BME280;33272;51.922;7.730;2022-09-30T00:35:54;99986.03;;;5.18;100.00
47530;BME280;33272;51.922;7.730;2022-09-30T00:38:22;99992.09;;;5.20;100.00
47530;BME280;33272;51.922;7.730;2022-09-30T00:40:49;99998.19;;;5.22;100.00
47530;BME280;33272;51.922;7.730;2022-09-30T00:43:20;99992.50;;;5.24;100.00
47530;BME280;33272;51.922;7.730;2022-09-30T00:46:03;99996.69;;;5.24;100.00
47530;BME280;33272;51.922;7.730;2022-09-30T00:48:35;99990.72;;;5.23;100.00
47530;BME280;33272;51.922;7.730;2022-09-30T00:51:05;99990.72;;;5.23;100.00
47530;BME280;33272;51.922;7.730;2022-09-30T00:53:38;99993.38;;;5.25;100.00
47530;BME280;33272;51.922;7.730;2022-09-30T00:56:15;99992.59;;;5.26;100.00
47530;BME280;33272;51.922;7.730;2022-09-30T00:58:47;99993.47;;;5.26;100.00
47530;BME280;33272;51.922;7.730;2022-09-30T01:01:18;99997.03;;;5.28;100.00
47530;BME280;33272;51.922;7.730;2022-09-30T01:03:52;100002.88;;;5.27;100.00
47530;BME280;33272;51.922;7.730;2022-09-30T01:06:22;100004.66;;;5.28;100.00
47530;BME280;33272;51.922;7.730;2022-09-30T01:08:50;100002.25;;;5.30;100.00
47530;BME280;33272;51.922;7.730;2022-09-30T01:11:18;99992.84;;;5.29;100.00
47530;BME280;33272;51.922;7.730;2022-09-30T01:13:50;99997.19;;;5.30;100.00
47530;BME280;33272;51.922;7.730;2022-09-30T01:16:46;99997.19;;;5.30;100.00
47530;BME280;33272;51.922;7.730;2022-09-30T01:20:05;99995.38;;;5.29;100.00
47530;BME280;33272;51.922;7.730;2022-09-30T01:22:42;99998.56;;;5.26;100.00
47530;BME280;33272;51.922;7.730;2022-09-30T01:25:44;100002.50;;;5.23;100.00
47530;BME280;33272;51.922;7.730;2022-09-30T01:28:41;100004.78;;;5.20;100.00
47530;BME280;33272;51.922;7.730;2022-09-30T01:31:30;100001.97;;;5.17;100.00
47530;BME280;33272;51.922;7.730;2022-09-30T01:34:08;100006.94;;;5.15;100.00
47530;BME280;33272;51.922;7.730;2022-09-30T01:37:02;100011.75;;;5.12;100.00
47530;BME280;33272;51.922;7.730;2022-09-30T01:39:43;100013.88;;;5.07;100.00
47530;BME280;33272;51.922;7.730;2022-09-30T01:42:21;100018.84;;;5.06;100.00
47530;BME280;33272;51.922;7.730;2022-09-30T01:44:58;100009.84;;;4.99;100.00
47530;BME280;33272;51.922;7.730;2022-09-30T01:47:33;100010.47;;;4.97;100.00
47530;BME280;33272;51.922;7.730;2022-09-30T01:50:07;100021.38;;;4.96;100.00
47530;BME280;33272;51.922;7.730;2022-09-30T01:52:42;100020.34;;;4.94;100.00
47530;BME280;33272;51.922;7.730;2022-09-30T01:55:16;100017.56;;;4.91;100.00
47530;BME280;33272;51.922;7.730;2022-09-30T01:57:51;100019.06;;;4.88;100.00
47530;BME280;33272;51.922;7.730;2022-09-30T02:00:23;100017.03;;;4.84;100.00
47530;BME280;33272;51.922;7.730;2022-09-30T02:02:55;100011.72;;;4.81;100.00
47530;BME280;33272;51.922;7.730;2022-09-30T02:05:28;100013.09;;;4.78;100.00
47530;BME280;33272;51.922;7.730;2022-09-30T02:08:05;100011.19;;;4.75;100.00
47530;BME280;33272;51.922;7.730;2022-09-30T02:10:40;100013.47;;;4.72;100.00
47530;BME280;33272;51.922;7.730;2022-09-30T02:13:14;100007.41;;;4.70;100.00
47530;BME280;33272;51.922;7.730;2022-09-30T02:15:48;100018.78;;;4.65;100.00
47530;BME280;33272;51.922;7.730;2022-09-30T02:18:25;100011.78;;;4.62;100.00
47530;BME280;33272;51.922;7.730;2022-09-30T02:21:00;100019.13;;;4.59;100.00
47530;BME280;33272;51.922;7.730;2022-09-30T02:23:31;100023.94;;;4.56;100.00
47530;BME280;33272;51.922;7.730;2022-09-30T02:26:02;100026.34;;;4.55;100.00
47530;BME280;33272;51.922;7.730;2022-09-30T02:28:35;100023.56;;;4.52;100.00
47530;BME280;33272;51.922;7.730;2022-09-30T02:31:05;100019.00;;;4.48;100.00
47530;BME280;33272;51.922;7.730;2022-09-30T02:33:40;100015.44;;;4.46;100.00
47530;BME280;33272;51.922;7.730;2022-09-30T02:36:17;100027.69;;;4.41;100.00
47530;BME280;33272;51.922;7.730;2022-09-30T02:38:52;100026.41;;;4.36;100.00
47530;BME280;33272;51.922;7.730;2022-09-30T02:41:24;100030.59;;;4.35;100.00
47530;BME280;33272;51.922;7.730;2022-09-30T02:43:53;100035.41;;;4.32;100.00
47530;BME280;33272;51.922;7.730;2022-09-30T02:46:28;100030.19;;;4.31;100.00
47530;BME280;33272;51.922;7.730;2022-09-30T02:49:05;100036.00;;;4.30;100.00
47530;BME280;33272;51.922;7.730;2022-09-30T02:51:39;100035.13;;;4.29;100.00
47530;BME280;33272;51.922;7.730;2022-09-30T02:54:16;100034.88;;;4.26;100.00
47530;BME280;33272;51.922;7.730;2022-09-30T02:56:51;100031.19;;;4.23;100.00
47530;BME280;33272;51.922;7.730;2022-09-30T02:59:20;100035.22;;;4.21;100.00
47530;BME280;33272;51.922;7.730;2022-09-30T03:01:48;100029.00;;;4.17;100.00
47530;BME280;33272;51.922;7.730;2022-09-30T03:04:21;100033.63;;;4.12;100.00
47530;BME280;33272;51.922;7.730;2022-09-30T03:06:50;100032.63;;;4.10;100.00
47530;BME280;33272;51.922;7.730;2022-09-30T03:09:17;100034.28;;;4.10;100.00
47530;BME280;33272;51.922;7.730;2022-09-30T03:11:44;100036.56;;;4.07;100.00
47530;BME280;33272;51.922;7.730;2022-09-30T03:14:27;100031.22;;;4.04;100.00
47530;BME280;33272;51.922;7.730;2022-09-30T03:17:44;100038.53;;;4.01;100.00
47530;BME280;33272;51.922;7.730;2022-09-30T03:20:34;100041.69;;;3.98;100.00
47530;BME280;33272;51.922;7.730;2022-09-30T03:23:33;100041.53;;;3.97;100.00
47530;BME280;33272;51.922;7.730;2022-09-30T03:26:16;100043.19;;;3.96;100.00
47530;BME280;33272;51.922;7.730;2022-09-30T03:28:54;100046.59;;;3.97;100.00
47530;BME280;33272;51.922;7.730;2022-09-30T03:31:35;100051.53;;;3.95;100.00
47530;BME280;33272;51.922;7.730;2022-09-30T03:34:12;100052.16;;;3.92;100.00
47530;BME280;33272;51.922;7.730;2022-09-30T03:36:56;100049.50;;;3.91;100.00
47530;BME280;33272;51.922;7.730;2022-09-30T03:39:35;100062.00;;;3.89;100.00
47530;BME280;33272;51.922;7.730;2022-09-30T03:42:12;100067.84;;;3.88;100.00
47530;BME280;33272;51.922;7.730;2022-09-30T03:44:47;100065.91;;;3.86;100.00
47530;BME280;33272;51.922;7.730;2022-09-30T03:47:22;100072.63;;;3.85;100.00
47530;BME280;33272;51.922;7.730;2022-09-30T03:49:54;100069.31;;;3.86;100.00
47530;BME280;33272;51.922;7.730;2022-09-30T03:52:28;100067.56;;;3.85;100.00
47530;BME280;33272;51.922;7.730;2022-09-30T03:54:59;100069.19;;;3.85;100.00
47530;BME280;33272;51.922;7.730;2022-09-30T03:57:28;100069.19;;;3.85;100.00
47530;BME280;33272;51.922;7.730;2022-09-30T03:59:56;100076.78;;;3.85;100.00
47530;BME280;33272;51.922;7.730;2022-09-30T04:02:23;100079.31;;;3.85;100.00
47530;BME280;33272;51.922;7.730;2022-09-30T04:04:50;100081.69;;;3.83;100.00
47530;BME280;33272;51.922;7.730;2022-09-30T04:07:18;100092.59;;;3.82;100.00
47530;BME280;33272;51.922;7.730;2022-09-30T04:09:46;100097.50;;;3.81;100.00
47530;BME280;33272;51.922;7.730;2022-09-30T04:12:13;100098.25;;;3.80;100.00
47530;BME280;33272;51.922;7.730;2022-09-30T04:14:40;100100.63;;;3.78;100.00
47530;BME280;33272;51.922;7.730;2022-09-30T04:17:07;100107.34;;;3.78;100.00
47530;BME280;33272;51.922;7.730;2022-09-30T04:19:35;100099.63;;;3.76;100.00
47530;BME280;33272;51.922;7.730;2022-09-30T04:22:05;100102.16;;;3.76;100.00
47530;BME280;33272;51.922;7.730;2022-09-30T04:24:33;100097.81;;;3.75;100.00
47530;BME280;33272;51.922;7.730;2022-09-30T04:27:01;100091.00;;;3.74;100.00
47530;BME280;33272;51.922;7.730;2022-09-30T04:29:28;100088.34;;;3.72;100.00
47530;BME280;33272;51.922;7.730;2022-09-30T04:31:56;100095.94;;;3.72;100.00
47530;BME280;33272;51.922;7.730;2022-09-30T04:34:23;100091.47;;;3.70;100.00
47530;BME280;33272;51.922;7.730;2022-09-30T04:36:50;100103.97;;;3.68;100.00
47530;BME280;33272;51.922;7.730;2022-09-30T04:39:17;100105.78;;;3.69;100.00
47530;BME280;33272;51.922;7.730;2022-09-30T04:41:44;100109.97;;;3.69;100.00
47530;BME280;33272;51.922;7.730;2022-09-30T04:44:12;100114.38;;;3.71;100.00
47530;BME280;33272;51.922;7.730;2022-09-30T04:46:39;100121.25;;;3.72;100.00
47530;BME280;33272;51.922;7.730;2022-09-30T04:49:08;100120.59;;;3.75;100.00
47530;BME280;33272;51.922;7.730;2022-09-30T04:51:35;100123.91;;;3.74;100.00
47530;BME280;33272;51.922;7.730;2022-09-30T04:54:03;100127.97;;;3.72;100.00
47530;BME280;33272;51.922;7.730;2022-09-30T04:56:30;100134.50;;;3.70;100.00
47530;BME280;33272;51.922;7.730;2022-09-30T04:58:57;100135.25;;;3.69;100.00
47530;BME280;33272;51.922;7.730;2022-09-30T05:01:26;100136.00;;;3.68;100.00
47530;BME280;33272;51.922;7.730;2022-09-30T05:03:53;100135.25;;;3.69;100.00
47530;BME280;33272;51.922;7.730;2022-09-30T05:06:20;100138.69;;;3.69;100.00
47530;BME280;33272;51.922;7.730;2022-09-30T05:08:47;100142.84;;;3.69;100.00
47530;BME280;33272;51.922;7.730;2022-09-30T05:11:16;100136.88;;;3.68;100.00
47530;BME280;33272;51.922;7.730;2022-09-30T05:13:44;100135.09;;;3.67;100.00
47530;BME280;33272;51.922;7.730;2022-09-30T05:16:12;100133.47;;;3.68;100.00
47530;BME280;33272;51.922;7.730;2022-09-30T05:18:42;100131.69;;;3.67;100.00
47530;BME280;33272;51.922;7.730;2022-09-30T05:21:11;100135.00;;;3.66;100.00
47530;BME280;33272;51.922;7.730;2022-09-30T05:23:39;100133.94;;;3.64;100.00
47530;BME280;33272;51.922;7.730;2022-09-30T05:26:06;100138.84;;;3.62;100.00
47530;BME280;33272;51.922;7.730;2022-09-30T05:28:33;100140.50;;;3.62;100.00
47530;BME280;33272;51.922;7.730;2022-09-30T05:31:03;100141.25;;;3.61;100.00
47530;BME280;33272;51.922;7.730;2022-09-30T05:33:31;100143.78;;;3.61;100.00
47530;BME280;33272;51.922;7.730;2022-09-30T05:36:02;100144.66;;;3.61;100.00
47530;BME280;33272;51.922;7.730;2022-09-30T05:38:29;100151.66;;;3.64;100.00
47530;BME280;33272;51.922;7.730;2022-09-30T05:40:57;100148.38;;;3.65;100.00
47530;BME280;33272;51.922;7.730;2022-09-30T05:43:24;100151.78;;;3.65;100.00
47530;BME280;33272;51.922;7.730;2022-09-30T05:45:53;100152.81;;;3.67;100.00
47530;BME280;33272;51.922;7.730;2022-09-30T05:48:20;100151.94;;;3.67;100.00
47530;BME280;33272;51.922;7.730;2022-09-30T05:50:47;100150.44;;;3.69;100.00
47530;BME280;33272;51.922;7.730;2022-09-30T05:53:16;100159.81;;;3.70;100.00
47530;BME280;33272;51.922;7.730;2022-09-30T05:55:47;100170.34;;;3.75;100.00
47530;BME280;33272;51.922;7.730;2022-09-30T05:58:16;100173.03;;;3.76;100.00
47530;BME280;33272;51.922;7.730;2022-09-30T06:00:48;100182.81;;;3.82;100.00
47530;BME280;33272;51.922;7.730;2022-09-30T06:03:16;100185.00;;;3.87;100.00
47530;BME280;33272;51.922;7.730;2022-09-30T06:05:43;100199.25;;;3.95;100.00
47530;BME280;33272;51.922;7.730;2022-09-30T06:08:12;100198.44;;;4.05;100.00
47530;BME280;33272;51.922;7.730;2022-09-30T06:10:42;100196.88;;;4.16;100.00
47530;BME280;33272;51.922;7.730;2022-09-30T06:13:10;100201.16;;;4.26;100.00
47530;BME280;33272;51.922;7.730;2022-09-30T06:15:37;100201.94;;;4.35;100.00
47530;BME280;33272;51.922;7.730;2022-09-30T06:18:06;100196.69;;;4.42;100.00
47530;BME280;33272;51.922;7.730;2022-09-30T06:20:34;100210.81;;;4.49;100.00
47530;BME280;33272;51.922;7.730;2022-09-30T06:23:02;100199.56;;;4.55;100.00
47530;BME280;33272;51.922;7.730;2022-09-30T06:25:30;100199.34;;;4.62;100.00
47530;BME280;33272;51.922;7.730;2022-09-30T06:27:59;100194.19;;;4.71;100.00
47530;BME280;33272;51.922;7.730;2022-09-30T06:30:27;100202.63;;;4.80;100.00
47530;BME280;33272;51.922;7.730;2022-09-30T06:32:55;100205.69;;;4.86;100.00
47530;BME280;33272;51.922;7.730;2022-09-30T06:35:22;100218.41;;;4.97;100.00
47530;BME280;33272;51.922;7.730;2022-09-30T06:37:53;100219.97;;;5.05;100.00
47530;BME280;33272;51.922;7.730;2022-09-30T06:40:20;100220.78;;;5.14;100.00
47530;BME280;33272;51.922;7.730;2022-09-30T06:42:48;100227.53;;;5.24;100.00
47530;BME280;33272;51.922;7.730;2022-09-30T06:45:16;100221.72;;;5.35;100.00
47530;BME280;33272;51.922;7.730;2022-09-30T06:47:44;100229.63;;;5.48;100.00
47530;BME280;33272;51.922;7.730;2022-09-30T06:50:13;100224.72;;;5.60;100.00
47530;BME280;33272;51.922;7.730;2022-09-30T06:52:40;100228.44;;;5.74;100.00
47530;BME280;33272;51.922;7.730;2022-09-30T06:55:07;100216.75;;;5.86;100.00
47530;BME280;33272;51.922;7.730;2022-09-30T06:57:34;100225.44;;;5.98;100.00
47530;BME280;33272;51.922;7.730;2022-09-30T07:00:02;100221.25;;;6.09;100.00
47530;BME280;33272;51.922;7.730;2022-09-30T07:02:30;100223.00;;;6.20;100.00
47530;BME280;33272;51.922;7.730;2022-09-30T07:04:59;100228.13;;;6.31;100.00
47530;BME280;33272;51.922;7.730;2022-09-30T07:07:28;100227.34;;;6.42;100.00
47530;BME280;33272;51.922;7.730;2022-09-30T07:09:59;100228.34;;;6.54;100.00
47530;BME280;33272;51.922;7.730;2022-09-30T07:12:26;100223.22;;;6.64;100.00
47530;BME280;33272;51.922;7.730;2022-09-30T07:14:53;100226.75;;;6.77;100.00
47530;BME280;33272;51.922;7.730;2022-09-30T07:17:21;100231.94;;;6.88;100.00
47530;BME280;33272;51.922;7.730;2022-09-30T07:19:49;100236.22;;;7.00;100.00
47530;BME280;33272;51.922;7.730;2022-09-30T07:22:17;100244.72;;;7.10;100.00
47530;BME280;33272;51.922;7.730;2022-09-30T07:24:55;100241.66;;;7.14;100.00
47530;BME280;33272;51.922;7.730;2022-09-30T07:27:23;100234.91;;;7.15;100.00
47530;BME280;33272;51.922;7.730;2022-09-30T07:29:50;100239.06;;;7.25;100.00
47530;BME280;33272;51.922;7.730;2022-09-30T07:32:18;100242.22;;;7.32;100.00
47530;BME280;33272;51.922;7.730;2022-09-30T07:34:46;100237.63;;;7.38;100.00
47530;BME280;33272;51.922;7.730;2022-09-30T07:37:17;100245.28;;;7.50;100.00
47530;BME280;33272;51.922;7.730;2022-09-30T07:39:47;100249.47;;;7.60;100.00
47530;BME280;33272;51.922;7.730;2022-09-30T07:42:16;100254.13;;;7.65;100.00
47530;BME280;33272;51.922;7.730;2022-09-30T07:44:46;100253.31;;;7.77;100.00
47530;BME280;33272;51.922;7.730;2022-09-30T07:47:16;100260.09;;;7.88;100.00
47530;BME280;33272;51.922;7.730;2022-09-30T07:49:44;100254.97;;;7.98;100.00
47530;BME280;33272;51.922;7.730;2022-09-30T07:52:12;100261.75;;;8.09;100.00
47530;BME280;33272;51.922;7.730;2022-09-30T07:54:41;100260.03;;;8.20;100.00
47530;BME280;33272;51.922;7.730;2022-09-30T07:57:08;100261.69;;;8.31;100.00
47530;BME280;33272;51.922;7.730;2022-09-30T07:59:37;100262.00;;;8.46;100.00
47530;BME280;33272;51.922;7.730;2022-09-30T08:02:06;100259.56;;;8.59;100.00
47530;BME280;33272;51.922;7.730;2022-09-30T08:04:34;100267.91;;;8.69;100.00
47530;BME280;33272;51.922;7.730;2022-09-30T08:07:02;100269.38;;;8.77;100.00
47530;BME280;33272;51.922;7.730;2022-09-30T08:09:30;100273.72;;;8.90;100.00
47530;BME280;33272;51.922;7.730;2022-09-30T08:11:58;100273.16;;;9.05;100.00
47530;BME280;33272;51.922;7.730;2022-09-30T08:14:27;100271.38;;;9.16;100.00
47530;BME280;33272;51.922;7.730;2022-09-30T08:16:54;100271.38;;;9.28;100.00
47530;BME280;33272;51.922;7.730;2022-09-30T08:19:25;100267.22;;;9.42;100.00
47530;BME280;33272;51.922;7.730;2022-09-30T08:21:53;100263.09;;;9.56;100.00
47530;BME280;33272;51.922;7.730;2022-09-30T08:24:21;100267.41;;;9.68;100.00
47530;BME280;33272;51.922;7.730;2022-09-30T08:26:48;100266.16;;;9.75;100.00
47530;BME280;33272;51.922;7.730;2022-09-30T08:29:17;100261.91;;;9.87;100.00
47530;BME280;33272;51.922;7.730;2022-09-30T08:31:44;100266.84;;;9.97;100.00
47530;BME280;33272;51.922;7.730;2022-09-30T08:34:11;100270.03;;;10.07;100.00
47530;BME280;33272;51.922;7.730;2022-09-30T08:36:38;100263.97;;;10.18;100.00
47530;BME280;33272;51.922;7.730;2022-09-30T08:39:05;100265.63;;;10.29;100.00
47530;BME280;33272;51.922;7.730;2022-09-30T08:44:44;100268.84;;;10.65;100.00
47530;BME280;33272;51.922;7.730;2022-09-30T08:47:29;100273.59;;;10.72;100.00
47530;BME280;33272;51.922;7.730;2022-09-30T08:50:09;100273.28;;;10.81;100.00
47530;BME280;33272;51.922;7.730;2022-09-30T08:52:44;100272.00;;;10.87;100.00
47530;BME280;33272;51.922;7.730;2022-09-30T08:55:19;100281.28;;;10.99;100.00
47530;BME280;33272;51.922;7.730;2022-09-30T08:57:47;100275.28;;;11.11;100.00
47530;BME280;33272;51.922;7.730;2022-09-30T09:00:18;100266.72;;;11.24;100.00
47530;BME280;33272;51.922;7.730;2022-09-30T09:02:49;100278.13;;;11.43;100.00
47530;BME280;33272;51.922;7.730;2022-09-30T09:05:30;100277.81;;;11.51;100.00
47530;BME280;33272;51.922;7.730;2022-09-30T09:08:08;100275.09;;;11.63;100.00
47530;BME280;33272;51.922;7.730;2022-09-30T09:10:44;100277.28;;;11.70;100.00
47530;BME280;33272;51.922;7.730;2022-09-30T09:13:32;100271.22;;;11.83;100.00
47530;BME280;33272;51.922;7.730;2022-09-30T09:16:09;100280.84;;;12.00;100.00
47530;BME280;33272;51.922;7.730;2022-09-30T09:18:56;100287.63;;;12.13;100.00
47530;BME280;33272;51.922;7.730;2022-09-30T09:21:33;100284.03;;;12.24;100.00
47530;BME280;33272;51.922;7.730;2022-09-30T09:24:14;100284.91;;;12.25;100.00
47530;BME280;33272;51.922;7.730;2022-09-30T09:26:44;100279.53;;;12.35;100.00
47530;BME280;33272;51.922;7.730;2022-09-30T09:29:38;100284.59;;;12.48;100.00
47530;BME280;33272;51.922;7.730;2022-09-30T09:32:16;100283.81;;;12.64;100.00
47530;BME280;33272;51.922;7.730;2022-09-30T09:34:51;100288.22;;;12.82;100.00
47530;BME280;33272;51.922;7.730;2022-09-30T09:37:25;100289.56;;;12.90;100.00
47530;BME280;33272;51.922;7.730;2022-09-30T09:40:16;100298.59;;;12.98;100.00
47530;BME280;33272;51.922;7.730;2022-09-30T09:42:57;100288.31;;;12.98;100.00
47530;BME280;33272;51.922;7.730;2022-09-30T09:45:35;100283.34;;;13.16;100.00
47530;BME280;33272;51.922;7.730;2022-09-30T09:48:13;100286.94;;;13.19;100.00
47530;BME280;33272;51.922;7.730;2022-09-30T09:50:50;100285.97;;;13.32;100.00
47530;BME280;33272;51.922;7.730;2022-09-30T09:53:37;100282.22;;;13.42;100.00
47530;BME280;33272;51.922;7.730;2022-09-30T09:56:15;100281.38;;;13.58;100.00
47530;BME280;33272;51.922;7.730;2022-09-30T09:59:06;100289.69;;;13.68;100.00
47530;BME280;33272;51.922;7.730;2022-09-30T10:01:35;100281.84;;;13.82;100.00
47530;BME280;33272;51.922;7.730;2022-09-30T10:04:14;100279.25;;;13.82;100.00
47530;BME280;33272;51.922;7.730;2022-09-30T10:06:52;100280.69;;;13.93;100.00
47530;BME280;33272;51.922;7.730;2022-09-30T10:09:31;100281.28;;;14.04;100.00
47530;BME280;33272;51.922;7.730;2022-09-30T10:12:28;100284.25;;;14.11;97.07
47530;BME280;33272;51.922;7.730;2022-09-30T10:15:03;100291.97;;;14.28;100.00
47530;BME280;33272;51.922;7.730;2022-09-30T10:17:37;100288.81;;;14.33;100.00
47530;BME280;33272;51.922;7.730;2022-09-30T10:20:20;100290.13;;;14.42;99.90
47530;BME280;33272;51.922;7.730;2022-09-30T10:22:48;100285.69;;;14.39;99.71
47530;BME280;33272;51.922;7.730;2022-09-30T10:25:21;100286.66;;;14.57;99.54
47530;BME280;33272;51.922;7.730;2022-09-30T10:27:53;100286.31;;;14.68;93.87
47530;BME280;33272;51.922;7.730;2022-09-30T10:30:40;100287.28;;;14.70;95.07
47530;BME280;33272;51.922;7.730;2022-09-30T10:33:18;100280.28;;;14.67;92.63
47530;BME280;33272;51.922;7.730;2022-09-30T10:35:55;100280.78;;;14.78;94.50
47530;BME280;33272;51.922;7.730;2022-09-30T10:38:24;100282.59;;;14.79;96.42
47530;BME280;33272;51.922;7.730;2022-09-30T10:40:54;100277.50;;;14.80;94.30
47530;BME280;33272;51.922;7.730;2022-09-30T10:43:26;100275.78;;;14.81;90.78
47530;BME280;33272;51.922;7.730;2022-09-30T10:45:54;100276.69;;;14.99;93.82
47530;BME280;33272;51.922;7.730;2022-09-30T10:48:24;100282.59;;;14.97;92.40
47530;BME280;33272;51.922;7.730;2022-09-30T10:50:56;100279.53;;;15.04;91.92
47530;BME280;33272;51.922;7.730;2022-09-30T10:53:25;100274.88;;;15.15;93.80
47530;BME280;33272;51.922;7.730;2022-09-30T10:55:55;100274.59;;;15.26;90.51
47530;BME280;33272;51.922;7.730;2022-09-30T10:58:29;100263.19;;;15.41;91.52
47530;BME280;33272;51.922;7.730;2022-09-30T11:01:08;100265.34;;;15.49;92.53
47530;BME280;33272;51.922;7.730;2022-09-30T11:03:46;100272.91;;;15.64;89.94
47530;BME280;33272;51.922;7.730;2022-09-30T11:06:16;100269.09;;;15.56;90.89
47530;BME280;33272;51.922;7.730;2022-09-30T11:08:52;100272.09;;;15.65;91.31
47530;BME280;33272;51.922;7.730;2022-09-30T11:11:24;100274.94;;;15.70;86.40
47530;BME280;33272;51.922;7.730;2022-09-30T11:13:56;100275.47;;;15.82;90.41
47530;BME280;33272;51.922;7.730;2022-09-30T11:16:34;100276.28;;;16.01;88.74
47530;BME280;33272;51.922;7.730;2022-09-30T11:19:10;100273.28;;;16.11;89.74
47530;BME280;33272;51.922;7.730;2022-09-30T11:21:48;100294.75;;;16.29;82.18
47530;BME280;33272;51.922;7.730;2022-09-30T11:24:27;100291.00;;;16.42;86.74
47530;BME280;33272;51.922;7.730;2022-09-30T11:27:04;100294.78;;;16.69;88.34
47530;BME280;33272;51.922;7.730;2022-09-30T11:29:59;100289.16;;;16.59;79.39
47530;BME280;33272;51.922;7.730;2022-09-30T11:32:41;100291.88;;;16.62;81.46
47530;BME280;33272;51.922;7.730;2022-09-30T11:35:37;100292.13;;;16.28;78.77
47530;BME280;33272;51.922;7.730;2022-09-30T11:38:30;100297.69;;;16.37;79.56
47530;BME280;33272;51.922;7.730;2022-09-30T11:41:08;100293.81;;;16.47;82.58
47530;BME280;33272;51.922;7.730;2022-09-30T11:43:46;100289.59;;;16.69;86.30
47530;BME280;33272;51.922;7.730;2022-09-30T11:46:47;100290.47;;;16.89;84.48
47530;BME280;33272;51.922;7.730;2022-09-30T11:49:57;100285.13;;;16.85;77.03
47530;BME280;33272;51.922;7.730;2022-09-30T11:52:37;100278.25;;;17.06;82.91
47530;BME280;33272;51.922;7.730;2022-09-30T11:55:33;100275.81;;;17.32;81.97
47530;BME280;33272;51.922;7.730;2022-09-30T11:58:05;100270.03;;;17.39;82.26
47530;BME280;33272;51.922;7.730;2022-09-30T12:00:36;100274.22;;;17.58;81.21
47530;BME280;33272;51.922;7.730;2022-09-30T12:03:14;100287.47;;;17.66;72.85
47530;BME280;33272;51.922;7.730;2022-09-30T12:05:48;100293.88;;;17.75;80.71
47530;BME280;33272;51.922;7.730;2022-09-30T12:08:26;100284.03;;;17.88;80.03
47530;BME280;33272;51.922;7.730;2022-09-30T12:10:59;100275.78;;;17.99;80.51
47530;BME280;33272;51.922;7.730;2022-09-30T12:13:32;100278.28;;;18.20;76.46
47530;BME280;33272;51.922;7.730;2022-09-30T12:16:03;100268.19;;;18.28;78.05
47530;BME280;33272;51.922;7.730;2022-09-30T12:18:37;100274.41;;;18.33;73.85
47530;BME280;33272;51.922;7.730;2022-09-30T12:21:16;100281.31;;;18.09;72.56
47530;BME280;33272;51.922;7.730;2022-09-30T12:23:48;100272.59;;;17.82;73.40
47530;BME280;33272;51.922;7.730;2022-09-30T12:26:18;100261.88;;;17.73;77.12
47530;BME280;33272;51.922;7.730;2022-09-30T12:28:50;100252.00;;;17.18;73.97
47530;BME280;33272;51.922;7.730;2022-09-30T12:32:44;100248.09;;;17.07;68.43
47530;BME280;33272;51.922;7.730;2022-09-30T12:35:36;100247.03;;;17.24;70.58
47530;BME280;33272;51.922;7.730;2022-09-30T12:38:23;100240.22;;;17.49;74.54
47530;BME280;33272;51.922;7.730;2022-09-30T12:41:08;100237.38;;;17.65;76.57
47530;BME280;33272;51.922;7.730;2022-09-30T12:44:35;100246.34;;;17.73;70.54
47530;BME280;33272;51.922;7.730;2022-09-30T12:47:30;100237.69;;;17.73;68.80
47530;BME280;33272;51.922;7.730;2022-09-30T12:49:59;100239.84;;;17.62;69.42
47530;BME280;33272;51.922;7.730;2022-09-30T12:52:31;100229.63;;;17.65;69.49
47530;BME280;33272;51.922;7.730;2022-09-30T12:55:05;100237.63;;;17.71;69.57
47530;BME280;33272;51.922;7.730;2022-09-30T12:57:39;100237.22;;;17.60;66.30
47530;BME280;33272;51.922;7.730;2022-09-30T13:00:16;100232.09;;;17.62;68.97
47530;BME280;33272;51.922;7.730;2022-09-30T13:02:46;100235.03;;;17.71;73.33
47530;BME280;33272;51.922;7.730;2022-09-30T13:05:53;100221.59;;;17.80;71.64
47530;BME280;33272;51.922;7.730;2022-09-30T13:08:46;100218.50;;;17.90;68.78
47530;BME280;33272;51.922;7.730;2022-09-30T13:11:39;100209.63;;;17.83;67.52
47530;BME280;33272;51.922;7.730;2022-09-30T13:14:29;100212.31;;;17.87;67.73
47530;BME280;33272;51.922;7.730;2022-09-30T13:19:43;100208.63;;;17.80;71.01
47530;BME280;33272;51.922;7.730;2022-09-30T13:22:56;100209.72;;;17.63;66.93
47530;BME280;33272;51.922;7.730;2022-09-30T13:25:23;100197.63;;;17.86;71.44
47530;BME280;33272;51.922;7.730;2022-09-30T13:27:53;100205.19;;;18.03;71.84
47530;BME280;33272;51.922;7.730;2022-09-30T13:30:38;100200.47;;;18.17;72.02
47530;BME280;33272;51.922;7.730;2022-09-30T13:33:31;100193.31;;;18.10;67.11